sensor_id;sensor_type;location;lat;lon;timestamp;pressure;altitude;pressure_sealevel;temperature;humidity
18527;BME280;9393;42.158;24.748;2023-09-08T00:00:34;99991.72;;;24.21;75.83
18527;BME280;9393;42.158;24.748;2023-09-08T00:03:38;99993.19;;;23.92;78.04
18527;BME280;9393;42.158;24.748;2023-09-08T00:06:42;99996.06;;;23.91;78.05
18527;BME280;9393;42.158;24.748;2023-09-08T00:09:46;99996.44;;;23.94;77.13
18527;BME280;9393;42.158;24.748;2023-09-08T00:12:50;99996.16;;;23.78;78.71
18527;BME280;9393;42.158;24.748;2023-09-08T00:15:55;99994.47;;;23.83;78.22
18527;BME280;9393;42.158;24.748;2023-09-08T00:18:59;99989.66;;;23.67;78.75
18527;BME280;9393;42.158;24.748;2023-09-08T00:22:03;99991.31;;;23.68;78.55
18527;BME280;9393;42.158;24.748;2023-09-08T00:25:09;99993.25;;;23.79;77.46
18527;BME280;9393;42.158;24.748;2023-09-08T00:28:13;99991.03;;;24.01;76.58
18527;BME280;9393;42.158;24.748;2023-09-08T00:31:19;99989.69;;;23.92;76.95
18527;BME280;9393;42.158;24.748;2023-09-08T00:34:22;99991.25;;;23.75;77.64
18527;BME280;9393;42.158;24.748;2023-09-08T00:37:27;99992.25;;;23.80;77.18
18527;BME280;9393;42.158;24.748;2023-09-08T00:40:46;99995.53;;;23.76;76.39
18527;BME280;9393;42.158;24.748;2023-09-08T00:44:16;99993.34;;;23.66;77.34
18527;BME280;9393;42.158;24.748;2023-09-08T00:47:22;99987.06;;;23.60;76.88
18527;BME280;9393;42.158;24.748;2023-09-08T00:50:26;99983.91;;;23.70;76.13
18527;BME280;9393;42.158;24.748;2023-09-08T00:53:31;99992.88;;;23.76;75.65
18527;BME280;9393;42.158;24.748;2023-09-08T00:56:37;99992.41;;;23.85;74.90
18527;BME280;9393;42.158;24.748;2023-09-08T00:59:43;99992.25;;;23.80;75.41
18527;BME280;9393;42.158;24.748;2023-09-08T01:02:49;99990.88;;;23.71;76.83
18527;BME280;9393;42.158;24.748;2023-09-08T01:05:54;99970.06;;;23.61;76.44
18527;BME280;9393;42.158;24.748;2023-09-08T01:08:59;99975.28;;;23.75;75.48
18527;BME280;9393;42.158;24.748;2023-09-08T01:12:05;99973.59;;;23.80;74.98
18527;BME280;9393;42.158;24.748;2023-09-08T01:15:10;99978.09;;;23.80;75.88
18527;BME280;9393;42.158;24.748;2023-09-08T01:18:16;99965.63;;;23.49;77.69
18527;BME280;9393;42.158;24.748;2023-09-08T01:21:45;99968.19;;;23.24;79.47
18527;BME280;9393;42.158;24.748;2023-09-08T01:25:22;99975.53;;;23.29;79.10
18527;BME280;9393;42.158;24.748;2023-09-08T01:28:26;99961.69;;;23.58;77.06
18527;BME280;9393;42.158;24.748;2023-09-08T01:31:31;99961.56;;;23.46;77.20
18527;BME280;9393;42.158;24.748;2023-09-08T01:34:36;99974.41;;;23.11;79.50
18527;BME280;9393;42.158;24.748;2023-09-08T01:37:44;99962.19;;;23.35;78.16
18527;BME280;9393;42.158;24.748;2023-09-08T01:40:50;99957.31;;;23.32;77.71
18527;BME280;9393;42.158;24.748;2023-09-08T01:43:53;99951.06;;;23.13;78.59
18527;BME280;9393;42.158;24.748;2023-09-08T01:46:58;99958.63;;;23.17;78.73
18527;BME280;9393;42.158;24.748;2023-09-08T01:50:02;99957.78;;;23.23;78.68
18527;BME280;9393;42.158;24.748;2023-09-08T01:53:06;99953.72;;;23.20;79.77
18527;BME280;9393;42.158;24.748;2023-09-08T01:56:11;99963.88;;;23.30;78.93
18527;BME280;9393;42.158;24.748;2023-09-08T01:59:15;99956.22;;;23.08;80.74
18527;BME280;9393;42.158;24.748;2023-09-08T02:02:19;99957.91;;;23.34;79.13
18527;BME280;9393;42.158;24.748;2023-09-08T02:05:23;99970.69;;;23.57;78.40
18527;BME280;9393;42.158;24.748;2023-09-08T02:08:28;99962.47;;;23.65;77.59
18527;BME280;9393;42.158;24.748;2023-09-08T02:11:35;99964.34;;;23.58;77.10
18527;BME280;9393;42.158;24.748;2023-09-08T02:14:38;99963.91;;;23.61;77.08
18527;BME280;9393;42.158;24.748;2023-09-08T02:17:42;99963.44;;;23.71;77.02
18527;BME280;9393;42.158;24.748;2023-09-08T02:20:46;99959.91;;;23.77;76.66
18527;BME280;9393;42.158;24.748;2023-09-08T02:23:50;99959.94;;;23.70;77.06
18527;BME280;9393;42.158;24.748;2023-09-08T02:26:56;99964.06;;;23.66;77.07
18527;BME280;9393;42.158;24.748;2023-09-08T02:30:00;99957.94;;;23.28;79.73
18527;BME280;9393;42.158;24.748;2023-09-08T02:33:05;99961.25;;;23.23;79.86
18527;BME280;9393;42.158;24.748;2023-09-08T02:36:09;99952.47;;;23.23;80.88
18527;BME280;9393;42.158;24.748;2023-09-08T02:39:15;99952.47;;;23.23;80.74
18527;BME280;9393;42.158;24.748;2023-09-08T02:42:20;99953.50;;;23.15;81.51
18527;BME280;9393;42.158;24.748;2023-09-08T02:45:24;99945.56;;;23.08;81.52
18527;BME280;9393;42.158;24.748;2023-09-08T02:48:28;99934.06;;;23.14;81.02
18527;BME280;9393;42.158;24.748;2023-09-08T02:51:32;99940.88;;;23.04;81.81
18527;BME280;9393;42.158;24.748;2023-09-08T02:54:36;99943.47;;;23.17;81.07
18527;BME280;9393;42.158;24.748;2023-09-08T02:57:42;99935.84;;;23.27;79.65
18527;BME280;9393;42.158;24.748;2023-09-08T03:00:46;99929.25;;;22.98;81.66
18527;BME280;9393;42.158;24.748;2023-09-08T03:03:50;99940.03;;;23.10;80.92
18527;BME280;9393;42.158;24.748;2023-09-08T03:06:55;99950.31;;;23.06;80.89
18527;BME280;9393;42.158;24.748;2023-09-08T03:09:59;99955.19;;;23.09;81.32
18527;BME280;9393;42.158;24.748;2023-09-08T03:13:05;99952.38;;;22.98;81.96
18527;BME280;9393;42.158;24.748;2023-09-08T03:16:09;99950.22;;;22.62;84.21
18527;BME280;9393;42.158;24.748;2023-09-08T03:19:13;99952.91;;;22.75;83.26
18527;BME280;9393;42.158;24.748;2023-09-08T03:22:17;99956.97;;;22.78;83.29
18527;BME280;9393;42.158;24.748;2023-09-08T03:25:21;99955.28;;;22.83;83.00
18527;BME280;9393;42.158;24.748;2023-09-08T03:28:27;99957.81;;;22.72;84.10
18527;BME280;9393;42.158;24.748;2023-09-08T03:31:30;99950.59;;;22.85;82.75
18527;BME280;9393;42.158;24.748;2023-09-08T03:34:34;99960.38;;;22.91;82.01
18527;BME280;9393;42.158;24.748;2023-09-08T03:37:43;99961.38;;;22.97;81.05
18527;BME280;9393;42.158;24.748;2023-09-08T03:40:47;99961.19;;;22.98;80.92
18527;BME280;9393;42.158;24.748;2023-09-08T03:43:52;99960.34;;;22.98;80.80
18527;BME280;9393;42.158;24.748;2023-09-08T03:46:57;99958.28;;;23.00;80.92
18527;BME280;9393;42.158;24.748;2023-09-08T03:53:10;99956.09;;;22.90;81.75
18527;BME280;9393;42.158;24.748;2023-09-08T03:56:14;99962.03;;;22.92;81.75
18527;BME280;9393;42.158;24.748;2023-09-08T03:59:20;99961.75;;;23.00;81.12
18527;BME280;9393;42.158;24.748;2023-09-08T04:02:24;99962.69;;;22.81;82.04
18527;BME280;9393;42.158;24.748;2023-09-08T04:05:29;99971.19;;;22.96;81.56
18527;BME280;9393;42.158;24.748;2023-09-08T04:08:33;99967.31;;;22.99;81.04
18527;BME280;9393;42.158;24.748;2023-09-08T04:11:37;99970.34;;;23.09;80.38
18527;BME280;9393;42.158;24.748;2023-09-08T04:14:42;99974.94;;;22.89;81.69
18527;BME280;9393;42.158;24.748;2023-09-08T04:17:46;99971.84;;;22.92;81.48
18527;BME280;9393;42.158;24.748;2023-09-08T04:20:50;99979.38;;;23.01;80.71
18527;BME280;9393;42.158;24.748;2023-09-08T04:23:55;99976.91;;;23.06;80.48
18527;BME280;9393;42.158;24.748;2023-09-08T04:26:59;99974.44;;;23.05;80.70
18527;BME280;9393;42.158;24.748;2023-09-08T04:30:06;99974.53;;;22.85;81.42
18527;BME280;9393;42.158;24.748;2023-09-08T04:33:10;99988.72;;;23.10;79.67
18527;BME280;9393;42.158;24.748;2023-09-08T04:36:15;99983.25;;;23.05;79.61
18527;BME280;9393;42.158;24.748;2023-09-08T04:39:19;99993.22;;;23.10;79.67
18527;BME280;9393;42.158;24.748;2023-09-08T04:42:24;99995.06;;;23.16;79.36
18527;BME280;9393;42.158;24.748;2023-09-08T04:45:30;100002.59;;;23.26;78.56
18527;BME280;9393;42.158;24.748;2023-09-08T04:48:34;99998.47;;;23.30;78.12
18527;BME280;9393;42.158;24.748;2023-09-08T04:51:41;99997.44;;;23.31;78.25
18527;BME280;9393;42.158;24.748;2023-09-08T04:54:46;99997.31;;;23.57;77.15
18527;BME280;9393;42.158;24.748;2023-09-08T04:57:50;100004.44;;;23.63;76.55
18527;BME280;9393;42.158;24.748;2023-09-08T05:00:56;99995.25;;;23.59;76.53
18527;BME280;9393;42.158;24.748;2023-09-08T05:04:00;100000.91;;;23.69;76.14
18527;BME280;9393;42.158;24.748;2023-09-08T05:07:04;100004.47;;;23.88;75.40
18527;BME280;9393;42.158;24.748;2023-09-08T05:10:09;100010.72;;;23.75;75.36
18527;BME280;9393;42.158;24.748;2023-09-08T05:13:15;100008.47;;;23.72;74.83
18527;BME280;9393;42.158;24.748;2023-09-08T05:16:34;100004.94;;;24.09;73.28
18527;BME280;9393;42.158;24.748;2023-09-08T05:19:51;100007.53;;;23.91;73.62
18527;BME280;9393;42.158;24.748;2023-09-08T05:22:55;100010.84;;;23.87;73.45
18527;BME280;9393;42.158;24.748;2023-09-08T05:26:00;100009.91;;;24.49;71.58
18527;BME280;9393;42.158;24.748;2023-09-08T05:29:04;100009.47;;;24.52;71.14
18527;BME280;9393;42.158;24.748;2023-09-08T05:32:10;100012.69;;;24.97;69.04
18527;BME280;9393;42.158;24.748;2023-09-08T05:35:14;100015.25;;;25.22;67.75
18527;BME280;9393;42.158;24.748;2023-09-08T05:38:19;100009.19;;;25.14;67.19
18527;BME280;9393;42.158;24.748;2023-09-08T05:41:23;100012.41;;;25.53;65.76
18527;BME280;9393;42.158;24.748;2023-09-08T05:44:26;100019.13;;;25.26;65.97
18527;BME280;9393;42.158;24.748;2023-09-08T05:47:32;100019.69;;;25.28;65.80
18527;BME280;9393;42.158;24.748;2023-09-08T05:50:38;100024.44;;;25.44;65.63
18527;BME280;9393;42.158;24.748;2023-09-08T05:53:43;100027.41;;;25.54;65.96
18527;BME280;9393;42.158;24.748;2023-09-08T05:56:48;100036.25;;;25.18;67.06
18527;BME280;9393;42.158;24.748;2023-09-08T05:59:52;100033.94;;;25.70;65.37
18527;BME280;9393;42.158;24.748;2023-09-08T06:02:57;100033.00;;;25.76;65.93
18527;BME280;9393;42.158;24.748;2023-09-08T06:06:02;100032.28;;;26.10;64.39
18527;BME280;9393;42.158;24.748;2023-09-08T06:09:06;100031.50;;;26.21;64.27
18527;BME280;9393;42.158;24.748;2023-09-08T06:12:12;100034.19;;;26.56;62.68
18527;BME280;9393;42.158;24.748;2023-09-08T06:15:16;100038.59;;;26.39;62.57
18527;BME280;9393;42.158;24.748;2023-09-08T06:18:22;100039.28;;;26.69;61.88
18527;BME280;9393;42.158;24.748;2023-09-08T06:21:26;100046.53;;;26.57;60.79
18527;BME280;9393;42.158;24.748;2023-09-08T06:24:31;100051.41;;;26.72;60.15
18527;BME280;9393;42.158;24.748;2023-09-08T06:27:35;100052.88;;;26.79;60.20
18527;BME280;9393;42.158;24.748;2023-09-08T06:30:39;100057.09;;;26.87;59.93
18527;BME280;9393;42.158;24.748;2023-09-08T06:33:46;100055.03;;;26.89;59.42
18527;BME280;9393;42.158;24.748;2023-09-08T06:36:55;100058.50;;;26.43;59.84
18527;BME280;9393;42.158;24.748;2023-09-08T06:39:59;100059.91;;;26.57;60.05
18527;BME280;9393;42.158;24.748;2023-09-08T06:43:04;100062.31;;;26.93;58.58
18527;BME280;9393;42.158;24.748;2023-09-08T06:46:26;100068.34;;;27.52;57.01
18527;BME280;9393;42.158;24.748;2023-09-08T06:49:32;100066.00;;;27.84;56.62
18527;BME280;9393;42.158;24.748;2023-09-08T06:52:37;100067.84;;;27.83;55.76
18527;BME280;9393;42.158;24.748;2023-09-08T06:55:41;100065.16;;;28.28;54.93
18527;BME280;9393;42.158;24.748;2023-09-08T06:58:47;100064.41;;;27.99;54.02
18527;BME280;9393;42.158;24.748;2023-09-08T07:01:52;100070.22;;;27.96;54.67
18527;BME280;9393;42.158;24.748;2023-09-08T07:04:58;100080.50;;;28.66;52.89
18527;BME280;9393;42.158;24.748;2023-09-08T07:08:13;100085.38;;;28.52;52.80
18527;BME280;9393;42.158;24.748;2023-09-08T07:11:17;100079.16;;;29.02;51.55
18527;BME280;9393;42.158;24.748;2023-09-08T07:14:21;100076.56;;;29.55;51.07
18527;BME280;9393;42.158;24.748;2023-09-08T07:17:26;100066.13;;;29.59;49.87
18527;BME280;9393;42.158;24.748;2023-09-08T07:20:32;100070.28;;;29.45;50.80
18527;BME280;9393;42.158;24.748;2023-09-08T07:23:37;100070.41;;;29.82;50.25
18527;BME280;9393;42.158;24.748;2023-09-08T07:26:43;100073.78;;;29.45;50.20
18527;BME280;9393;42.158;24.748;2023-09-08T07:29:47;100077.28;;;29.73;50.62
18527;BME280;9393;42.158;24.748;2023-09-08T07:32:52;100064.41;;;30.01;50.04
18527;BME280;9393;42.158;24.748;2023-09-08T07:35:57;100065.34;;;30.17;48.45
18527;BME280;9393;42.158;24.748;2023-09-08T07:39:07;100065.47;;;30.00;44.60
18527;BME280;9393;42.158;24.748;2023-09-08T07:42:11;100055.59;;;30.06;47.46
18527;BME280;9393;42.158;24.748;2023-09-08T07:45:15;100056.28;;;29.96;49.33
18527;BME280;9393;42.158;24.748;2023-09-08T07:48:19;100049.19;;;30.17;48.20
18527;BME280;9393;42.158;24.748;2023-09-08T07:51:25;100051.47;;;30.30;47.30
18527;BME280;9393;42.158;24.748;2023-09-08T07:54:29;100048.59;;;30.05;47.04
18527;BME280;9393;42.158;24.748;2023-09-08T07:57:33;100045.03;;;30.73;46.20
18527;BME280;9393;42.158;24.748;2023-09-08T08:00:37;100048.69;;;30.99;46.01
18527;BME280;9393;42.158;24.748;2023-09-08T08:03:41;100044.97;;;30.58;44.80
18527;BME280;9393;42.158;24.748;2023-09-08T08:06:46;100043.59;;;30.55;45.08
18527;BME280;9393;42.158;24.748;2023-09-08T08:09:51;100039.84;;;31.09;44.46
18527;BME280;9393;42.158;24.748;2023-09-08T08:12:56;100037.97;;;31.14;43.57
18527;BME280;9393;42.158;24.748;2023-09-08T08:16:00;100042.03;;;31.22;43.24
18527;BME280;9393;42.158;24.748;2023-09-08T08:19:04;100034.59;;;31.59;38.48
18527;BME280;9393;42.158;24.748;2023-09-08T08:22:10;100033.69;;;30.66;39.42
18527;BME280;9393;42.158;24.748;2023-09-08T08:25:14;100032.09;;;30.70;40.07
18527;BME280;9393;42.158;24.748;2023-09-08T08:28:18;100032.00;;;30.55;40.56
18527;BME280;9393;42.158;24.748;2023-09-08T08:31:22;100025.50;;;30.09;42.24
18527;BME280;9393;42.158;24.748;2023-09-08T08:34:26;100029.75;;;29.51;42.81
18527;BME280;9393;42.158;24.748;2023-09-08T08:37:32;100024.88;;;29.43;42.98
18527;BME280;9393;42.158;24.748;2023-09-08T08:40:38;100020.38;;;28.84;42.06
18527;BME280;9393;42.158;24.748;2023-09-08T08:43:43;100025.44;;;28.80;43.62
18527;BME280;9393;42.158;24.748;2023-09-08T08:46:47;100025.75;;;28.84;43.74
18527;BME280;9393;42.158;24.748;2023-09-08T08:49:53;100018.94;;;28.98;41.80
18527;BME280;9393;42.158;24.748;2023-09-08T08:52:59;100023.50;;;29.19;41.21
18527;BME280;9393;42.158;24.748;2023-09-08T08:56:05;100025.16;;;29.03;41.59
18527;BME280;9393;42.158;24.748;2023-09-08T08:59:11;100021.41;;;29.48;41.56
18527;BME280;9393;42.158;24.748;2023-09-08T09:02:15;100016.91;;;30.12;40.69
18527;BME280;9393;42.158;24.748;2023-09-08T09:05:19;100023.31;;;30.95;38.27
18527;BME280;9393;42.158;24.748;2023-09-08T09:08:25;100027.75;;;31.16;36.65
18527;BME280;9393;42.158;24.748;2023-09-08T09:11:30;100011.41;;;31.53;36.55
18527;BME280;9393;42.158;24.748;2023-09-08T09:14:34;100006.19;;;31.16;36.80
18527;BME280;9393;42.158;24.748;2023-09-08T09:17:38;100006.09;;;30.96;37.16
18527;BME280;9393;42.158;24.748;2023-09-08T09:20:53;100015.06;;;31.12;36.69
18527;BME280;9393;42.158;24.748;2023-09-08T09:23:59;100007.59;;;31.39;36.31
18527;BME280;9393;42.158;24.748;2023-09-08T09:27:04;99996.72;;;31.03;35.36
18527;BME280;9393;42.158;24.748;2023-09-08T09:30:09;99995.19;;;31.48;34.88
18527;BME280;9393;42.158;24.748;2023-09-08T09:33:14;99994.97;;;31.70;35.39
18527;BME280;9393;42.158;24.748;2023-09-08T09:36:20;100000.09;;;31.86;34.44
18527;BME280;9393;42.158;24.748;2023-09-08T09:39:26;99992.53;;;32.29;34.40
18527;BME280;9393;42.158;24.748;2023-09-08T09:42:31;99991.19;;;32.31;33.11
18527;BME280;9393;42.158;24.748;2023-09-08T09:45:36;99982.78;;;32.58;33.87
18527;BME280;9393;42.158;24.748;2023-09-08T09:48:40;99985.50;;;32.43;33.79
18527;BME280;9393;42.158;24.748;2023-09-08T09:51:45;99981.25;;;32.12;33.16
18527;BME280;9393;42.158;24.748;2023-09-08T09:54:51;99983.91;;;32.22;33.35
18527;BME280;9393;42.158;24.748;2023-09-08T09:57:59;99979.81;;;31.48;33.23
18527;BME280;9393;42.158;24.748;2023-09-08T10:01:06;99974.50;;;31.84;33.86
18527;BME280;9393;42.158;24.748;2023-09-08T10:04:11;99961.81;;;32.10;33.79
18527;BME280;9393;42.158;24.748;2023-09-08T10:07:15;99962.88;;;32.14;32.90
18527;BME280;9393;42.158;24.748;2023-09-08T10:10:22;99959.66;;;32.12;33.14
18527;BME280;9393;42.158;24.748;2023-09-08T10:13:27;99950.09;;;32.44;33.07
18527;BME280;9393;42.158;24.748;2023-09-08T10:16:35;99953.94;;;32.28;33.04
18527;BME280;9393;42.158;24.748;2023-09-08T10:19:40;99942.94;;;31.79;34.25
18527;BME280;9393;42.158;24.748;2023-09-08T10:22:53;99940.22;;;31.34;34.14
18527;BME280;9393;42.158;24.748;2023-09-08T10:26:02;99938.59;;;31.83;34.22
18527;BME280;9393;42.158;24.748;2023-09-08T10:29:07;99933.78;;;31.85;33.92
18527;BME280;9393;42.158;24.748;2023-09-08T10:32:11;99929.16;;;31.86;33.11
18527;BME280;9393;42.158;24.748;2023-09-08T10:35:16;99925.66;;;31.45;33.79
18527;BME280;9393;42.158;24.748;2023-09-08T10:38:22;99928.91;;;31.92;33.60
18527;BME280;9393;42.158;24.748;2023-09-08T10:41:28;99923.22;;;32.14;33.77
18527;BME280;9393;42.158;24.748;2023-09-08T10:44:34;99917.84;;;32.09;32.94
18527;BME280;9393;42.158;24.748;2023-09-08T10:47:54;99921.31;;;32.15;32.62
18527;BME280;9393;42.158;24.748;2023-09-08T10:50:59;99925.13;;;31.98;32.63
18527;BME280;9393;42.158;24.748;2023-09-08T10:54:05;99913.25;;;31.99;32.77
18527;BME280;9393;42.158;24.748;2023-09-08T10:57:15;99922.66;;;32.17;32.91
18527;BME280;9393;42.158;24.748;2023-09-08T11:00:19;99916.47;;;32.17;32.67
18527;BME280;9393;42.158;24.748;2023-09-08T11:03:27;99907.81;;;32.25;32.63
18527;BME280;9393;42.158;24.748;2023-09-08T11:06:32;99899.78;;;31.84;33.35
18527;BME280;9393;42.158;24.748;2023-09-08T11:09:36;99893.81;;;32.08;32.79
18527;BME280;9393;42.158;24.748;2023-09-08T11:12:41;99892.69;;;32.24;32.62
18527;BME280;9393;42.158;24.748;2023-09-08T11:15:45;99880.81;;;32.30;32.94
18527;BME280;9393;42.158;24.748;2023-09-08T11:18:51;99874.16;;;32.71;32.09
18527;BME280;9393;42.158;24.748;2023-09-08T11:21:55;99871.81;;;32.98;31.80
18527;BME280;9393;42.158;24.748;2023-09-08T11:25:01;99871.25;;;33.01;31.40
18527;BME280;9393;42.158;24.748;2023-09-08T11:28:08;99867.41;;;31.84;32.64
18527;BME280;9393;42.158;24.748;2023-09-08T11:31:12;99875.53;;;31.44;33.58
18527;BME280;9393;42.158;24.748;2023-09-08T11:34:16;99855.19;;;32.17;32.93
18527;BME280;9393;42.158;24.748;2023-09-08T11:37:20;99861.81;;;32.45;32.17
18527;BME280;9393;42.158;24.748;2023-09-08T11:40:24;99851.09;;;32.89;31.33
18527;BME280;9393;42.158;24.748;2023-09-08T11:43:30;99850.34;;;32.78;31.73
18527;BME280;9393;42.158;24.748;2023-09-08T11:46:38;99853.44;;;32.51;31.60
18527;BME280;9393;42.158;24.748;2023-09-08T11:49:42;99842.81;;;32.11;31.47
18527;BME280;9393;42.158;24.748;2023-09-08T11:52:49;99825.66;;;31.41;32.78
18527;BME280;9393;42.158;24.748;2023-09-08T11:55:53;99832.41;;;31.39;32.38
18527;BME280;9393;42.158;24.748;2023-09-08T11:59:00;99823.53;;;31.53;32.08
18527;BME280;9393;42.158;24.748;2023-09-08T12:02:04;99825.81;;;32.16;31.66
18527;BME280;9393;42.158;24.748;2023-09-08T12:05:11;99824.44;;;32.18;31.80
18527;BME280;9393;42.158;24.748;2023-09-08T12:08:16;99819.34;;;32.01;31.96
18527;BME280;9393;42.158;24.748;2023-09-08T12:11:20;99813.47;;;31.84;31.86
18527;BME280;9393;42.158;24.748;2023-09-08T12:14:25;99811.63;;;31.70;31.17
18527;BME280;9393;42.158;24.748;2023-09-08T12:17:29;99804.91;;;31.22;32.21
18527;BME280;9393;42.158;24.748;2023-09-08T12:20:34;99804.91;;;31.57;31.92
18527;BME280;9393;42.158;24.748;2023-09-08T12:23:47;99800.00;;;31.84;32.46
18527;BME280;9393;42.158;24.748;2023-09-08T12:26:52;99796.69;;;32.02;31.75
18527;BME280;9393;42.158;24.748;2023-09-08T12:29:59;99795.44;;;31.70;31.54
18527;BME280;9393;42.158;24.748;2023-09-08T12:33:03;99790.63;;;31.62;31.84
18527;BME280;9393;42.158;24.748;2023-09-08T12:36:10;99783.28;;;31.72;31.78
18527;BME280;9393;42.158;24.748;2023-09-08T12:39:16;99788.66;;;31.87;31.83
18527;BME280;9393;42.158;24.748;2023-09-08T12:42:20;99779.84;;;31.36;32.30
18527;BME280;9393;42.158;24.748;2023-09-08T12:45:26;99783.91;;;31.03;32.90
18527;BME280;9393;42.158;24.748;2023-09-08T12:48:30;99779.53;;;30.62;33.89
18527;BME280;9393;42.158;24.748;2023-09-08T12:51:34;99782.91;;;30.27;34.03
18527;BME280;9393;42.158;24.748;2023-09-08T12:54:39;99774.00;;;30.12;34.01
18527;BME280;9393;42.158;24.748;2023-09-08T12:57:43;99773.16;;;30.01;34.69
18527;BME280;9393;42.158;24.748;2023-09-08T13:00:49;99777.25;;;30.19;34.18
18527;BME280;9393;42.158;24.748;2023-09-08T13:03:53;99774.78;;;30.02;34.07
18527;BME280;9393;42.158;24.748;2023-09-08T13:06:57;99772.63;;;30.04;34.65
18527;BME280;9393;42.158;24.748;2023-09-08T13:10:03;99778.72;;;29.89;34.27
18527;BME280;9393;42.158;24.748;2023-09-08T13:13:08;99775.78;;;29.91;35.18
18527;BME280;9393;42.158;24.748;2023-09-08T13:16:13;99773.41;;;29.94;34.55
18527;BME280;9393;42.158;24.748;2023-09-08T13:19:17;99773.44;;;29.99;34.24
18527;BME280;9393;42.158;24.748;2023-09-08T13:22:21;99771.03;;;30.03;34.31
18527;BME280;9393;42.158;24.748;2023-09-08T13:25:26;99774.81;;;30.17;34.02
18527;BME280;9393;42.158;24.748;2023-09-08T13:28:30;99782.09;;;30.17;33.98
18527;BME280;9393;42.158;24.748;2023-09-08T13:31:35;99778.88;;;30.25;34.03
18527;BME280;9393;42.158;24.748;2023-09-08T13:34:39;99780.06;;;30.49;34.22
18527;BME280;9393;42.158;24.748;2023-09-08T13:37:46;99775.72;;;30.48;35.12
18527;BME280;9393;42.158;24.748;2023-09-08T13:40:50;99775.78;;;30.63;34.59
18527;BME280;9393;42.158;24.748;2023-09-08T13:43:55;99774.16;;;30.57;35.03
18527;BME280;9393;42.158;24.748;2023-09-08T13:47:03;99773.25;;;30.26;34.84
18527;BME280;9393;42.158;24.748;2023-09-08T13:50:08;99769.75;;;30.31;34.89
18527;BME280;9393;42.158;24.748;2023-09-08T13:53:15;99765.72;;;30.33;35.25
18527;BME280;9393;42.158;24.748;2023-09-08T13:56:21;99769.22;;;30.29;34.87
18527;BME280;9393;42.158;24.748;2023-09-08T13:59:27;99764.16;;;30.42;34.11
18527;BME280;9393;42.158;24.748;2023-09-08T14:02:39;99750.19;;;30.50;34.35
18527;BME280;9393;42.158;24.748;2023-09-08T14:05:45;99753.41;;;30.52;34.32
18527;BME280;9393;42.158;24.748;2023-09-08T14:08:55;99751.56;;;30.58;33.56
18527;BME280;9393;42.158;24.748;2023-09-08T14:12:03;99753.16;;;30.59;33.91
18527;BME280;9393;42.158;24.748;2023-09-08T14:15:10;99753.44;;;30.58;33.83
18527;BME280;9393;42.158;24.748;2023-09-08T14:18:19;99753.09;;;30.34;34.53
18527;BME280;9393;42.158;24.748;2023-09-08T14:21:23;99746.44;;;30.62;33.95
18527;BME280;9393;42.158;24.748;2023-09-08T14:24:31;99748.31;;;30.76;34.19
18527;BME280;9393;42.158;24.748;2023-09-08T14:27:35;99738.91;;;30.89;33.69
18527;BME280;9393;42.158;24.748;2023-09-08T14:30:39;99738.09;;;31.14;33.81
18527;BME280;9393;42.158;24.748;2023-09-08T14:33:45;99730.25;;;31.42;34.35
18527;BME280;9393;42.158;24.748;2023-09-08T14:36:49;99735.53;;;31.83;33.08
18527;BME280;9393;42.158;24.748;2023-09-08T14:39:53;99721.25;;;31.77;32.42
18527;BME280;9393;42.158;24.748;2023-09-08T14:42:57;99729.69;;;31.55;32.96
18527;BME280;9393;42.158;24.748;2023-09-08T14:46:01;99722.38;;;31.71;32.36
18527;BME280;9393;42.158;24.748;2023-09-08T14:49:07;99724.59;;;31.39;32.46
18527;BME280;9393;42.158;24.748;2023-09-08T14:52:11;99724.63;;;31.34;32.64
18527;BME280;9393;42.158;24.748;2023-09-08T14:55:15;99715.44;;;31.40;32.30
18527;BME280;9393;42.158;24.748;2023-09-08T14:58:19;99712.44;;;31.57;32.60
18527;BME280;9393;42.158;24.748;2023-09-08T15:01:23;99712.16;;;31.48;32.65
18527;BME280;9393;42.158;24.748;2023-09-08T15:04:31;99706.50;;;31.65;33.07
18527;BME280;9393;42.158;24.748;2023-09-08T15:07:35;99719.16;;;31.49;32.65
18527;BME280;9393;42.158;24.748;2023-09-08T15:10:39;99718.72;;;31.01;32.89
18527;BME280;9393;42.158;24.748;2023-09-08T15:13:43;99720.88;;;30.64;32.91
18527;BME280;9393;42.158;24.748;2023-09-08T15:16:47;99719.66;;;30.15;34.69
18527;BME280;9393;42.158;24.748;2023-09-08T15:19:52;99723.22;;;29.63;36.59
18527;BME280;9393;42.158;24.748;2023-09-08T15:22:56;99723.09;;;29.43;37.71
18527;BME280;9393;42.158;24.748;2023-09-08T15:26:00;99726.56;;;29.38;38.18
18527;BME280;9393;42.158;24.748;2023-09-08T15:29:04;99725.75;;;29.01;39.19
18527;BME280;9393;42.158;24.748;2023-09-08T15:32:08;99718.81;;;29.10;39.91
18527;BME280;9393;42.158;24.748;2023-09-08T15:35:14;99721.50;;;28.73;40.96
18527;BME280;9393;42.158;24.748;2023-09-08T15:38:18;99720.44;;;28.74;40.89
18527;BME280;9393;42.158;24.748;2023-09-08T15:41:22;99730.25;;;28.64;41.17
18527;BME280;9393;42.158;24.748;2023-09-08T15:44:26;99730.47;;;28.57;41.58
18527;BME280;9393;42.158;24.748;2023-09-08T15:47:30;99734.78;;;28.58;41.13
18527;BME280;9393;42.158;24.748;2023-09-08T15:50:35;99728.00;;;28.55;41.42
18527;BME280;9393;42.158;24.748;2023-09-08T15:53:40;99735.94;;;28.67;41.56
18527;BME280;9393;42.158;24.748;2023-09-08T15:56:44;99731.78;;;28.54;41.79
18527;BME280;9393;42.158;24.748;2023-09-08T15:59:48;99731.53;;;28.29;42.69
18527;BME280;9393;42.158;24.748;2023-09-08T16:02:52;99733.59;;;28.22;42.85
18527;BME280;9393;42.158;24.748;2023-09-08T16:05:57;99744.25;;;28.17;42.57
18527;BME280;9393;42.158;24.748;2023-09-08T16:09:01;99737.59;;;28.20;41.83
18527;BME280;9393;42.158;24.748;2023-09-08T16:12:06;99741.88;;;28.21;42.22
18527;BME280;9393;42.158;24.748;2023-09-08T16:15:10;99753.09;;;28.18;42.54
18527;BME280;9393;42.158;24.748;2023-09-08T16:18:14;99743.31;;;28.28;42.19
18527;BME280;9393;42.158;24.748;2023-09-08T16:21:19;99741.41;;;28.24;42.50